Reading, Jamaica
Current Conditions -  °F | °C
As of 6:00 AM on Thursday 23 Oct 2014 (Local Time) from MKJS Reporting Station
Broken Clouds Broken Clouds  
Wind Chill: 26°   Ceiling: 3200
Heat Index: 28°   Visibility: 6mi
Dew Point: 24°   Wind: 3mph
Humidity: 89%   Direction: 170°S
Pressure: 29.85"   Gusts: NA
Location:  18.45°N, 77.95°W
Report Text: MKJS 231100Z 17003KT 9999 FEW020 BKN032 26/24 Q1011
Loading
Personal Weather Stations






























Interactive Weather Map
Tropical Storm Tracking
New forecast layout! Learn more

10-Day Weather Forecast

Advertisements
Track Severe Weather on mobile